sensor_id;sensor_type;location;lat;lon;timestamp;P1;durP1;ratioP1;P2;durP2;ratioP2
23838;SDS011;12100;44.384;20.272;2022-12-20T00:01:28;19.13;;;12.82;;
23838;SDS011;12100;44.384;20.272;2022-12-20T00:04:01;20.55;;;11.82;;
23838;SDS011;12100;44.384;20.272;2022-12-20T00:06:30;19.92;;;13.07;;
23838;SDS011;12100;44.384;20.272;2022-12-20T00:08:58;19.40;;;10.75;;
23838;SDS011;12100;44.384;20.272;2022-12-20T00:11:26;16.38;;;10.75;;
23838;SDS011;12100;44.384;20.272;2022-12-20T00:13:52;17.73;;;10.85;;
23838;SDS011;12100;44.384;20.272;2022-12-20T00:16:19;20.05;;;12.35;;
23838;SDS011;12100;44.384;20.272;2022-12-20T00:18:53;21.55;;;12.30;;
23838;SDS011;12100;44.384;20.272;2022-12-20T00:21:20;22.58;;;14.43;;
23838;SDS011;12100;44.384;20.272;2022-12-20T00:23:47;18.60;;;11.98;;
23838;SDS011;12100;44.384;20.272;2022-12-20T00:26:14;20.77;;;11.40;;
23838;SDS011;12100;44.384;20.272;2022-12-20T00:28:41;19.88;;;12.32;;
23838;SDS011;12100;44.384;20.272;2022-12-20T00:31:08;19.13;;;11.05;;
23838;SDS011;12100;44.384;20.272;2022-12-20T00:33:35;19.17;;;11.93;;
23838;SDS011;12100;44.384;20.272;2022-12-20T00:36:02;19.00;;;11.77;;
23838;SDS011;12100;44.384;20.272;2022-12-20T00:38:29;16.30;;;11.25;;
23838;SDS011;12100;44.384;20.272;2022-12-20T00:41:02;18.48;;;10.15;;
23838;SDS011;12100;44.384;20.272;2022-12-20T00:43:29;17.83;;;11.18;;
23838;SDS011;12100;44.384;20.272;2022-12-20T00:45:55;17.83;;;11.65;;
23838;SDS011;12100;44.384;20.272;2022-12-20T00:48:22;19.42;;;11.55;;
23838;SDS011;12100;44.384;20.272;2022-12-20T00:50:48;20.05;;;12.02;;
23838;SDS011;12100;44.384;20.272;2022-12-20T00:53:14;19.85;;;10.80;;
23838;SDS011;12100;44.384;20.272;2022-12-20T00:55:41;17.85;;;10.68;;
23838;SDS011;12100;44.384;20.272;2022-12-20T00:58:07;18.77;;;10.85;;
23838;SDS011;12100;44.384;20.272;2022-12-20T01:00:33;19.42;;;11.43;;
23838;SDS011;12100;44.384;20.272;2022-12-20T01:02:59;17.75;;;12.40;;
23838;SDS011;12100;44.384;20.272;2022-12-20T01:05:25;17.13;;;11.57;;
23838;SDS011;12100;44.384;20.272;2022-12-20T01:07:51;19.60;;;11.27;;
23838;SDS011;12100;44.384;20.272;2022-12-20T01:10:17;21.38;;;11.50;;
23838;SDS011;12100;44.384;20.272;2022-12-20T01:12:42;16.70;;;11.52;;
23838;SDS011;12100;44.384;20.272;2022-12-20T01:15:08;18.65;;;11.07;;
23838;SDS011;12100;44.384;20.272;2022-12-20T01:17:35;20.65;;;12.43;;
23838;SDS011;12100;44.384;20.272;2022-12-20T01:20:01;19.15;;;11.48;;
23838;SDS011;12100;44.384;20.272;2022-12-20T01:22:27;17.13;;;10.80;;
23838;SDS011;12100;44.384;20.272;2022-12-20T01:24:53;19.50;;;13.18;;
23838;SDS011;12100;44.384;20.272;2022-12-20T01:27:19;21.90;;;13.07;;
23838;SDS011;12100;44.384;20.272;2022-12-20T01:29:44;21.45;;;13.20;;
23838;SDS011;12100;44.384;20.272;2022-12-20T01:32:10;24.00;;;13.70;;
23838;SDS011;12100;44.384;20.272;2022-12-20T01:34:36;20.33;;;14.35;;
23838;SDS011;12100;44.384;20.272;2022-12-20T01:37:02;22.75;;;15.25;;
23838;SDS011;12100;44.384;20.272;2022-12-20T01:39:27;21.67;;;11.63;;
23838;SDS011;12100;44.384;20.272;2022-12-20T01:41:53;18.90;;;13.20;;
23838;SDS011;12100;44.384;20.272;2022-12-20T01:46:46;21.33;;;13.75;;
23838;SDS011;12100;44.384;20.272;2022-12-20T01:49:15;22.00;;;13.48;;
23838;SDS011;12100;44.384;20.272;2022-12-20T01:51:48;19.33;;;12.13;;
23838;SDS011;12100;44.384;20.272;2022-12-20T01:54:24;19.58;;;11.93;;
23838;SDS011;12100;44.384;20.272;2022-12-20T01:56:56;23.50;;;12.95;;
23838;SDS011;12100;44.384;20.272;2022-12-20T01:59:26;23.15;;;15.02;;
23838;SDS011;12100;44.384;20.272;2022-12-20T02:01:54;21.75;;;13.05;;
23838;SDS011;12100;44.384;20.272;2022-12-20T02:04:22;21.25;;;13.25;;
23838;SDS011;12100;44.384;20.272;2022-12-20T02:06:48;17.98;;;11.75;;
23838;SDS011;12100;44.384;20.272;2022-12-20T02:09:14;20.08;;;11.95;;
23838;SDS011;12100;44.384;20.272;2022-12-20T02:14:38;20.20;;;11.85;;
23838;SDS011;12100;44.384;20.272;2022-12-20T02:31:00;22.48;;;13.35;;
23838;SDS011;12100;44.384;20.272;2022-12-20T02:33:32;24.15;;;14.73;;
23838;SDS011;12100;44.384;20.272;2022-12-20T02:35:58;18.00;;;13.30;;
23838;SDS011;12100;44.384;20.272;2022-12-20T02:38:28;20.73;;;13.80;;
23838;SDS011;12100;44.384;20.272;2022-12-20T02:41:02;19.20;;;12.32;;
23838;SDS011;12100;44.384;20.272;2022-12-20T02:43:33;21.50;;;12.02;;
23838;SDS011;12100;44.384;20.272;2022-12-20T02:46:22;20.92;;;12.00;;
23838;SDS011;12100;44.384;20.272;2022-12-20T02:48:50;23.50;;;13.07;;
23838;SDS011;12100;44.384;20.272;2022-12-20T02:51:17;19.67;;;11.80;;
23838;SDS011;12100;44.384;20.272;2022-12-20T02:53:47;27.73;;;14.38;;
23838;SDS011;12100;44.384;20.272;2022-12-20T02:59:24;18.75;;;12.30;;
23838;SDS011;12100;44.384;20.272;2022-12-20T03:01:55;20.88;;;14.00;;
23838;SDS011;12100;44.384;20.272;2022-12-20T03:04:22;19.35;;;11.25;;
23838;SDS011;12100;44.384;20.272;2022-12-20T03:07:02;22.83;;;13.32;;
23838;SDS011;12100;44.384;20.272;2022-12-20T03:09:34;20.33;;;12.52;;
23838;SDS011;12100;44.384;20.272;2022-12-20T03:12:01;21.08;;;13.45;;
23838;SDS011;12100;44.384;20.272;2022-12-20T03:14:27;20.45;;;12.38;;
23838;SDS011;12100;44.384;20.272;2022-12-20T03:16:53;19.83;;;11.90;;
23838;SDS011;12100;44.384;20.272;2022-12-20T03:19:19;16.52;;;11.32;;
23838;SDS011;12100;44.384;20.272;2022-12-20T03:21:44;23.67;;;15.35;;
23838;SDS011;12100;44.384;20.272;2022-12-20T03:24:10;23.67;;;13.27;;
23838;SDS011;12100;44.384;20.272;2022-12-20T03:26:38;19.90;;;13.27;;
23838;SDS011;12100;44.384;20.272;2022-12-20T03:29:07;22.58;;;12.13;;
23838;SDS011;12100;44.384;20.272;2022-12-20T03:31:34;21.50;;;15.30;;
23838;SDS011;12100;44.384;20.272;2022-12-20T03:34:00;20.67;;;13.60;;
23838;SDS011;12100;44.384;20.272;2022-12-20T03:36:26;27.38;;;13.27;;
23838;SDS011;12100;44.384;20.272;2022-12-20T03:38:53;22.40;;;13.32;;
23838;SDS011;12100;44.384;20.272;2022-12-20T03:41:19;18.98;;;13.70;;
23838;SDS011;12100;44.384;20.272;2022-12-20T03:43:46;20.67;;;11.48;;
23838;SDS011;12100;44.384;20.272;2022-12-20T03:46:12;19.95;;;13.77;;
23838;SDS011;12100;44.384;20.272;2022-12-20T03:48:39;22.45;;;12.50;;
23838;SDS011;12100;44.384;20.272;2022-12-20T03:51:04;24.13;;;12.77;;
23838;SDS011;12100;44.384;20.272;2022-12-20T03:53:30;24.17;;;14.07;;
23838;SDS011;12100;44.384;20.272;2022-12-20T03:55:56;23.00;;;13.05;;
23838;SDS011;12100;44.384;20.272;2022-12-20T03:58:22;24.45;;;14.30;;
23838;SDS011;12100;44.384;20.272;2022-12-20T04:00:48;27.08;;;13.27;;
23838;SDS011;12100;44.384;20.272;2022-12-20T04:03:14;22.05;;;14.75;;
23838;SDS011;12100;44.384;20.272;2022-12-20T04:05:40;22.00;;;12.32;;
23838;SDS011;12100;44.384;20.272;2022-12-20T04:08:06;22.38;;;12.50;;
23838;SDS011;12100;44.384;20.272;2022-12-20T04:10:32;23.70;;;14.95;;
23838;SDS011;12100;44.384;20.272;2022-12-20T04:13:18;21.55;;;11.63;;
23838;SDS011;12100;44.384;20.272;2022-12-20T04:15:43;24.33;;;14.32;;
23838;SDS011;12100;44.384;20.272;2022-12-20T04:18:09;20.48;;;13.10;;
23838;SDS011;12100;44.384;20.272;2022-12-20T04:20:35;21.73;;;12.57;;
23838;SDS011;12100;44.384;20.272;2022-12-20T04:23:01;24.27;;;14.57;;
23838;SDS011;12100;44.384;20.272;2022-12-20T04:25:27;24.40;;;14.73;;
23838;SDS011;12100;44.384;20.272;2022-12-20T04:27:52;22.00;;;13.40;;
23838;SDS011;12100;44.384;20.272;2022-12-20T04:30:18;22.98;;;12.73;;
23838;SDS011;12100;44.384;20.272;2022-12-20T04:32:44;24.17;;;15.80;;
23838;SDS011;12100;44.384;20.272;2022-12-20T04:35:10;19.50;;;14.50;;
23838;SDS011;12100;44.384;20.272;2022-12-20T04:37:36;18.48;;;12.05;;
23838;SDS011;12100;44.384;20.272;2022-12-20T04:40:02;20.95;;;14.45;;
23838;SDS011;12100;44.384;20.272;2022-12-20T04:42:28;19.05;;;12.20;;
23838;SDS011;12100;44.384;20.272;2022-12-20T04:44:54;23.58;;;13.60;;
23838;SDS011;12100;44.384;20.272;2022-12-20T04:47:19;22.30;;;14.70;;
23838;SDS011;12100;44.384;20.272;2022-12-20T04:49:46;24.40;;;12.43;;
23838;SDS011;12100;44.384;20.272;2022-12-20T04:52:12;19.38;;;10.68;;
23838;SDS011;12100;44.384;20.272;2022-12-20T04:54:56;19.67;;;10.95;;
23838;SDS011;12100;44.384;20.272;2022-12-20T04:57:22;18.17;;;12.88;;
23838;SDS011;12100;44.384;20.272;2022-12-20T04:59:48;21.75;;;13.27;;
23838;SDS011;12100;44.384;20.272;2022-12-20T05:02:14;21.42;;;12.63;;
23838;SDS011;12100;44.384;20.272;2022-12-20T05:04:39;21.20;;;12.27;;
23838;SDS011;12100;44.384;20.272;2022-12-20T05:07:05;20.83;;;11.27;;
23838;SDS011;12100;44.384;20.272;2022-12-20T05:09:31;23.52;;;17.17;;
23838;SDS011;12100;44.384;20.272;2022-12-20T05:11:57;22.30;;;13.18;;
23838;SDS011;12100;44.384;20.272;2022-12-20T05:14:22;21.63;;;13.20;;
23838;SDS011;12100;44.384;20.272;2022-12-20T05:16:48;20.73;;;12.55;;
23838;SDS011;12100;44.384;20.272;2022-12-20T05:19:14;21.95;;;14.40;;
23838;SDS011;12100;44.384;20.272;2022-12-20T05:21:40;21.08;;;13.25;;
23838;SDS011;12100;44.384;20.272;2022-12-20T05:24:24;21.98;;;14.10;;
23838;SDS011;12100;44.384;20.272;2022-12-20T05:27:08;17.88;;;10.95;;
23838;SDS011;12100;44.384;20.272;2022-12-20T05:29:34;23.38;;;13.45;;
23838;SDS011;12100;44.384;20.272;2022-12-20T05:31:59;21.45;;;11.60;;
23838;SDS011;12100;44.384;20.272;2022-12-20T05:34:25;20.02;;;14.00;;
23838;SDS011;12100;44.384;20.272;2022-12-20T05:36:51;22.55;;;14.35;;
23838;SDS011;12100;44.384;20.272;2022-12-20T05:39:17;24.48;;;13.70;;
23838;SDS011;12100;44.384;20.272;2022-12-20T05:41:43;24.73;;;14.23;;
23838;SDS011;12100;44.384;20.272;2022-12-20T05:44:08;23.45;;;14.10;;
23838;SDS011;12100;44.384;20.272;2022-12-20T05:46:34;24.00;;;14.00;;
23838;SDS011;12100;44.384;20.272;2022-12-20T05:49:00;19.90;;;13.73;;
23838;SDS011;12100;44.384;20.272;2022-12-20T05:51:26;22.00;;;14.35;;
23838;SDS011;12100;44.384;20.272;2022-12-20T05:53:52;21.92;;;13.73;;
23838;SDS011;12100;44.384;20.272;2022-12-20T05:56:17;23.23;;;12.52;;
23838;SDS011;12100;44.384;20.272;2022-12-20T05:58:43;21.38;;;14.68;;
23838;SDS011;12100;44.384;20.272;2022-12-20T06:01:09;21.48;;;12.38;;
23838;SDS011;12100;44.384;20.272;2022-12-20T06:03:35;21.10;;;12.25;;
23838;SDS011;12100;44.384;20.272;2022-12-20T06:06:02;25.23;;;13.60;;
23838;SDS011;12100;44.384;20.272;2022-12-20T06:08:28;25.00;;;14.27;;
23838;SDS011;12100;44.384;20.272;2022-12-20T06:10:54;24.95;;;13.50;;
23838;SDS011;12100;44.384;20.272;2022-12-20T06:13:20;21.67;;;12.55;;
23838;SDS011;12100;44.384;20.272;2022-12-20T06:15:46;24.10;;;15.70;;
23838;SDS011;12100;44.384;20.272;2022-12-20T06:18:12;21.92;;;13.43;;
23838;SDS011;12100;44.384;20.272;2022-12-20T06:20:38;24.88;;;15.02;;
23838;SDS011;12100;44.384;20.272;2022-12-20T06:23:04;21.08;;;11.55;;
23838;SDS011;12100;44.384;20.272;2022-12-20T06:25:31;21.45;;;12.25;;
23838;SDS011;12100;44.384;20.272;2022-12-20T06:27:57;22.65;;;13.45;;
23838;SDS011;12100;44.384;20.272;2022-12-20T06:30:23;23.17;;;13.63;;
23838;SDS011;12100;44.384;20.272;2022-12-20T06:32:49;23.05;;;13.20;;
23838;SDS011;12100;44.384;20.272;2022-12-20T06:35:15;25.70;;;14.68;;
23838;SDS011;12100;44.384;20.272;2022-12-20T06:37:41;22.23;;;13.68;;
23838;SDS011;12100;44.384;20.272;2022-12-20T06:40:07;22.40;;;12.43;;
23838;SDS011;12100;44.384;20.272;2022-12-20T06:42:34;20.42;;;16.08;;
23838;SDS011;12100;44.384;20.272;2022-12-20T06:45:00;21.35;;;14.65;;
23838;SDS011;12100;44.384;20.272;2022-12-20T06:47:26;20.63;;;12.77;;
23838;SDS011;12100;44.384;20.272;2022-12-20T06:49:52;20.75;;;12.52;;
23838;SDS011;12100;44.384;20.272;2022-12-20T06:52:18;16.50;;;11.20;;
23838;SDS011;12100;44.384;20.272;2022-12-20T06:54:44;16.25;;;11.82;;
23838;SDS011;12100;44.384;20.272;2022-12-20T06:57:10;16.42;;;11.68;;
23838;SDS011;12100;44.384;20.272;2022-12-20T06:59:36;18.05;;;11.48;;
23838;SDS011;12100;44.384;20.272;2022-12-20T07:02:02;18.58;;;12.32;;
23838;SDS011;12100;44.384;20.272;2022-12-20T07:04:28;19.45;;;13.07;;
23838;SDS011;12100;44.384;20.272;2022-12-20T07:06:54;20.83;;;13.07;;
23838;SDS011;12100;44.384;20.272;2022-12-20T07:09:21;19.00;;;11.43;;
23838;SDS011;12100;44.384;20.272;2022-12-20T07:11:47;19.17;;;12.75;;
23838;SDS011;12100;44.384;20.272;2022-12-20T07:14:13;17.23;;;11.63;;
23838;SDS011;12100;44.384;20.272;2022-12-20T07:16:39;17.73;;;12.00;;
23838;SDS011;12100;44.384;20.272;2022-12-20T07:19:11;18.77;;;11.95;;
23838;SDS011;12100;44.384;20.272;2022-12-20T07:21:37;17.13;;;12.82;;
23838;SDS011;12100;44.384;20.272;2022-12-20T07:24:03;25.30;;;18.98;;
23838;SDS011;12100;44.384;20.272;2022-12-20T07:26:30;29.80;;;16.48;;
23838;SDS011;12100;44.384;20.272;2022-12-20T07:28:55;25.52;;;17.98;;
23838;SDS011;12100;44.384;20.272;2022-12-20T07:31:21;28.40;;;20.58;;
23838;SDS011;12100;44.384;20.272;2022-12-20T07:33:47;19.80;;;14.30;;
23838;SDS011;12100;44.384;20.272;2022-12-20T07:36:13;21.95;;;15.10;;
23838;SDS011;12100;44.384;20.272;2022-12-20T07:38:42;29.17;;;19.05;;
23838;SDS011;12100;44.384;20.272;2022-12-20T07:41:09;22.42;;;16.05;;
23838;SDS011;12100;44.384;20.272;2022-12-20T07:43:37;21.38;;;15.05;;
23838;SDS011;12100;44.384;20.272;2022-12-20T07:46:04;22.15;;;17.33;;
23838;SDS011;12100;44.384;20.272;2022-12-20T07:48:31;22.73;;;14.73;;
23838;SDS011;12100;44.384;20.272;2022-12-20T07:51:00;23.27;;;15.65;;
23838;SDS011;12100;44.384;20.272;2022-12-20T07:53:34;24.52;;;16.98;;
23838;SDS011;12100;44.384;20.272;2022-12-20T07:56:03;20.42;;;15.18;;
23838;SDS011;12100;44.384;20.272;2022-12-20T07:58:31;17.67;;;13.30;;
23838;SDS011;12100;44.384;20.272;2022-12-20T08:00:59;19.13;;;14.57;;
23838;SDS011;12100;44.384;20.272;2022-12-20T08:03:31;16.50;;;10.73;;
23838;SDS011;12100;44.384;20.272;2022-12-20T08:06:02;20.15;;;13.50;;
23838;SDS011;12100;44.384;20.272;2022-12-20T08:08:32;19.77;;;15.35;;
23838;SDS011;12100;44.384;20.272;2022-12-20T08:11:02;20.27;;;15.13;;
23838;SDS011;12100;44.384;20.272;2022-12-20T08:13:31;21.15;;;14.15;;
23838;SDS011;12100;44.384;20.272;2022-12-20T08:15:58;17.95;;;13.60;;
23838;SDS011;12100;44.384;20.272;2022-12-20T08:18:24;19.50;;;14.63;;
23838;SDS011;12100;44.384;20.272;2022-12-20T08:20:50;18.85;;;14.82;;
23838;SDS011;12100;44.384;20.272;2022-12-20T08:23:16;19.35;;;13.63;;
23838;SDS011;12100;44.384;20.272;2022-12-20T08:25:43;21.77;;;13.63;;
23838;SDS011;12100;44.384;20.272;2022-12-20T08:28:09;20.30;;;13.52;;
23838;SDS011;12100;44.384;20.272;2022-12-20T08:30:35;19.35;;;12.98;;
23838;SDS011;12100;44.384;20.272;2022-12-20T08:33:01;24.60;;;17.67;;
23838;SDS011;12100;44.384;20.272;2022-12-20T08:35:27;18.23;;;12.98;;
23838;SDS011;12100;44.384;20.272;2022-12-20T08:37:52;20.17;;;16.20;;
23838;SDS011;12100;44.384;20.272;2022-12-20T08:40:19;22.35;;;16.63;;
23838;SDS011;12100;44.384;20.272;2022-12-20T08:42:45;20.00;;;13.45;;
23838;SDS011;12100;44.384;20.272;2022-12-20T08:45:11;22.00;;;15.18;;
23838;SDS011;12100;44.384;20.272;2022-12-20T08:47:37;21.00;;;14.48;;
23838;SDS011;12100;44.384;20.272;2022-12-20T08:50:03;17.45;;;13.85;;
23838;SDS011;12100;44.384;20.272;2022-12-20T08:52:30;19.25;;;14.63;;
23838;SDS011;12100;44.384;20.272;2022-12-20T08:54:55;17.70;;;13.55;;
23838;SDS011;12100;44.384;20.272;2022-12-20T08:57:21;18.35;;;10.98;;
23838;SDS011;12100;44.384;20.272;2022-12-20T08:59:47;17.95;;;12.15;;
23838;SDS011;12100;44.384;20.272;2022-12-20T09:02:13;16.33;;;12.80;;
23838;SDS011;12100;44.384;20.272;2022-12-20T09:04:39;19.75;;;13.93;;
23838;SDS011;12100;44.384;20.272;2022-12-20T09:07:04;18.40;;;13.05;;
23838;SDS011;12100;44.384;20.272;2022-12-20T09:09:30;39.08;;;31.30;;
23838;SDS011;12100;44.384;20.272;2022-12-20T09:11:56;28.58;;;21.08;;
23838;SDS011;12100;44.384;20.272;2022-12-20T09:14:22;19.48;;;16.95;;
23838;SDS011;12100;44.384;20.272;2022-12-20T09:16:48;19.80;;;15.73;;
23838;SDS011;12100;44.384;20.272;2022-12-20T09:19:14;18.88;;;13.27;;
23838;SDS011;12100;44.384;20.272;2022-12-20T09:21:40;20.75;;;13.70;;
23838;SDS011;12100;44.384;20.272;2022-12-20T09:24:06;21.40;;;14.25;;
23838;SDS011;12100;44.384;20.272;2022-12-20T09:26:32;25.42;;;17.33;;
23838;SDS011;12100;44.384;20.272;2022-12-20T09:29:02;17.30;;;11.93;;
23838;SDS011;12100;44.384;20.272;2022-12-20T09:31:29;16.33;;;12.35;;
23838;SDS011;12100;44.384;20.272;2022-12-20T09:33:55;24.50;;;15.73;;
23838;SDS011;12100;44.384;20.272;2022-12-20T09:36:22;43.75;;;23.60;;
23838;SDS011;12100;44.384;20.272;2022-12-20T09:38:50;16.63;;;13.20;;
23838;SDS011;12100;44.384;20.272;2022-12-20T09:41:38;19.05;;;13.90;;
23838;SDS011;12100;44.384;20.272;2022-12-20T09:44:06;16.77;;;11.95;;
23838;SDS011;12100;44.384;20.272;2022-12-20T09:46:56;20.08;;;14.35;;
23838;SDS011;12100;44.384;20.272;2022-12-20T09:49:39;19.77;;;14.25;;
23838;SDS011;12100;44.384;20.272;2022-12-20T09:55:04;16.75;;;12.77;;
23838;SDS011;12100;44.384;20.272;2022-12-20T10:00:19;16.75;;;12.50;;
23838;SDS011;12100;44.384;20.272;2022-12-20T10:02:46;18.63;;;14.55;;
23838;SDS011;12100;44.384;20.272;2022-12-20T10:09:03;19.35;;;11.98;;
23838;SDS011;12100;44.384;20.272;2022-12-20T10:11:28;16.13;;;11.50;;
23838;SDS011;12100;44.384;20.272;2022-12-20T10:16:45;18.80;;;13.38;;
23838;SDS011;12100;44.384;20.272;2022-12-20T10:24:58;17.90;;;12.45;;
23838;SDS011;12100;44.384;20.272;2022-12-20T10:27:39;21.38;;;14.40;;
23838;SDS011;12100;44.384;20.272;2022-12-20T10:30:11;17.00;;;10.52;;
23838;SDS011;12100;44.384;20.272;2022-12-20T10:32:49;18.50;;;13.48;;
23838;SDS011;12100;44.384;20.272;2022-12-20T10:35:29;19.33;;;14.98;;
23838;SDS011;12100;44.384;20.272;2022-12-20T10:38:05;15.15;;;11.65;;
23838;SDS011;12100;44.384;20.272;2022-12-20T10:40:37;15.70;;;12.70;;
23838;SDS011;12100;44.384;20.272;2022-12-20T10:43:15;16.70;;;11.88;;
23838;SDS011;12100;44.384;20.272;2022-12-20T10:45:44;15.48;;;11.88;;
23838;SDS011;12100;44.384;20.272;2022-12-20T10:48:42;14.82;;;11.77;;
23838;SDS011;12100;44.384;20.272;2022-12-20T10:56:31;16.48;;;12.10;;
23838;SDS011;12100;44.384;20.272;2022-12-20T11:01:47;17.58;;;11.32;;
23838;SDS011;12100;44.384;20.272;2022-12-20T11:04:24;15.15;;;11.05;;
23838;SDS011;12100;44.384;20.272;2022-12-20T11:06:52;22.42;;;14.73;;
23838;SDS011;12100;44.384;20.272;2022-12-20T11:11:58;17.30;;;12.30;;
23838;SDS011;12100;44.384;20.272;2022-12-20T11:14:29;19.33;;;15.25;;
23838;SDS011;12100;44.384;20.272;2022-12-20T11:16:57;24.92;;;16.15;;
23838;SDS011;12100;44.384;20.272;2022-12-20T11:22:08;18.10;;;13.18;;
23838;SDS011;12100;44.384;20.272;2022-12-20T11:30:14;21.13;;;13.18;;
23838;SDS011;12100;44.384;20.272;2022-12-20T11:38:04;17.90;;;11.95;;
23838;SDS011;12100;44.384;20.272;2022-12-20T11:48:44;19.30;;;11.93;;
23838;SDS011;12100;44.384;20.272;2022-12-20T11:56:20;19.17;;;13.15;;
23838;SDS011;12100;44.384;20.272;2022-12-20T11:59:05;20.17;;;11.90;;
23838;SDS011;12100;44.384;20.272;2022-12-20T12:01:38;21.45;;;13.93;;
23838;SDS011;12100;44.384;20.272;2022-12-20T12:04:35;22.17;;;15.38;;
23838;SDS011;12100;44.384;20.272;2022-12-20T12:07:30;20.95;;;13.52;;
23838;SDS011;12100;44.384;20.272;2022-12-20T12:10:05;19.98;;;12.07;;
23838;SDS011;12100;44.384;20.272;2022-12-20T12:12:39;21.45;;;12.02;;
23838;SDS011;12100;44.384;20.272;2022-12-20T12:20:30;21.17;;;13.30;;
23838;SDS011;12100;44.384;20.272;2022-12-20T12:23:15;19.10;;;14.90;;
23838;SDS011;12100;44.384;20.272;2022-12-20T12:25:44;21.63;;;13.30;;
23838;SDS011;12100;44.384;20.272;2022-12-20T12:28:11;21.90;;;12.60;;
23838;SDS011;12100;44.384;20.272;2022-12-20T12:30:44;21.90;;;13.15;;
23838;SDS011;12100;44.384;20.272;2022-12-20T12:33:26;21.17;;;12.45;;
23838;SDS011;12100;44.384;20.272;2022-12-20T12:39:36;20.42;;;12.13;;
23838;SDS011;12100;44.384;20.272;2022-12-20T12:44:56;20.15;;;14.13;;
23838;SDS011;12100;44.384;20.272;2022-12-20T12:50:03;24.35;;;14.70;;
23838;SDS011;12100;44.384;20.272;2022-12-20T12:52:51;20.23;;;12.43;;
23838;SDS011;12100;44.384;20.272;2022-12-20T12:58:40;19.30;;;11.27;;
23838;SDS011;12100;44.384;20.272;2022-12-20T13:11:31;20.02;;;12.90;;
23838;SDS011;12100;44.384;20.272;2022-12-20T13:16:45;22.40;;;13.77;;
23838;SDS011;12100;44.384;20.272;2022-12-20T13:22:23;25.33;;;14.55;;
23838;SDS011;12100;44.384;20.272;2022-12-20T13:37:53;25.67;;;14.57;;
23838;SDS011;12100;44.384;20.272;2022-12-20T13:43:47;23.80;;;13.35;;
23838;SDS011;12100;44.384;20.272;2022-12-20T13:46:26;25.45;;;15.25;;
23838;SDS011;12100;44.384;20.272;2022-12-20T13:49:03;20.30;;;12.25;;
23838;SDS011;12100;44.384;20.272;2022-12-20T13:51:32;20.52;;;13.02;;
23838;SDS011;12100;44.384;20.272;2022-12-20T13:54:02;24.73;;;14.90;;
23838;SDS011;12100;44.384;20.272;2022-12-20T13:56:48;23.55;;;14.85;;
23838;SDS011;12100;44.384;20.272;2022-12-20T14:01:52;25.95;;;13.32;;
23838;SDS011;12100;44.384;20.272;2022-12-20T14:04:20;23.13;;;15.07;;
23838;SDS011;12100;44.384;20.272;2022-12-20T14:06:50;22.98;;;14.18;;
23838;SDS011;12100;44.384;20.272;2022-12-20T14:12:16;23.15;;;14.70;;
23838;SDS011;12100;44.384;20.272;2022-12-20T14:14:43;22.17;;;14.38;;
23838;SDS011;12100;44.384;20.272;2022-12-20T14:17:21;25.00;;;14.80;;
23838;SDS011;12100;44.384;20.272;2022-12-20T14:20:14;24.10;;;15.50;;
23838;SDS011;12100;44.384;20.272;2022-12-20T14:23:03;27.05;;;16.17;;
23838;SDS011;12100;44.384;20.272;2022-12-20T14:25:45;24.48;;;13.52;;
23838;SDS011;12100;44.384;20.272;2022-12-20T14:30:54;23.95;;;14.23;;
23838;SDS011;12100;44.384;20.272;2022-12-20T14:35:47;25.35;;;15.75;;
23838;SDS011;12100;44.384;20.272;2022-12-20T14:38:23;26.50;;;15.65;;
23838;SDS011;12100;44.384;20.272;2022-12-20T14:40:53;22.08;;;14.98;;
23838;SDS011;12100;44.384;20.272;2022-12-20T14:43:23;25.70;;;15.68;;
23838;SDS011;12100;44.384;20.272;2022-12-20T14:46:11;28.00;;;16.77;;
23838;SDS011;12100;44.384;20.272;2022-12-20T14:48:46;27.75;;;17.63;;
23838;SDS011;12100;44.384;20.272;2022-12-20T14:51:17;22.92;;;14.55;;
23838;SDS011;12100;44.384;20.272;2022-12-20T14:53:45;29.60;;;18.13;;
23838;SDS011;12100;44.384;20.272;2022-12-20T14:56:16;25.65;;;16.30;;
23838;SDS011;12100;44.384;20.272;2022-12-20T14:58:44;31.85;;;19.08;;
23838;SDS011;12100;44.384;20.272;2022-12-20T15:03:52;26.45;;;17.20;;
23838;SDS011;12100;44.384;20.272;2022-12-20T15:09:16;40.38;;;28.25;;
23838;SDS011;12100;44.384;20.272;2022-12-20T15:11:42;34.97;;;21.75;;
23838;SDS011;12100;44.384;20.272;2022-12-20T15:16:49;27.35;;;16.70;;
23838;SDS011;12100;44.384;20.272;2022-12-20T15:19:16;30.05;;;16.75;;
23838;SDS011;12100;44.384;20.272;2022-12-20T15:21:41;34.88;;;19.40;;
23838;SDS011;12100;44.384;20.272;2022-12-20T15:24:10;31.13;;;20.30;;
23838;SDS011;12100;44.384;20.272;2022-12-20T15:26:41;31.30;;;21.70;;
23838;SDS011;12100;44.384;20.272;2022-12-20T15:29:16;29.58;;;16.95;;
23838;SDS011;12100;44.384;20.272;2022-12-20T15:31:53;26.52;;;17.00;;
23838;SDS011;12100;44.384;20.272;2022-12-20T15:36:59;27.55;;;15.88;;
23838;SDS011;12100;44.384;20.272;2022-12-20T15:39:26;27.58;;;14.95;;
23838;SDS011;12100;44.384;20.272;2022-12-20T15:41:53;26.50;;;14.63;;
23838;SDS011;12100;44.384;20.272;2022-12-20T15:44:23;25.25;;;14.70;;
23838;SDS011;12100;44.384;20.272;2022-12-20T15:46:50;26.27;;;16.73;;
23838;SDS011;12100;44.384;20.272;2022-12-20T15:49:27;26.08;;;16.25;;
23838;SDS011;12100;44.384;20.272;2022-12-20T15:51:54;33.65;;;21.73;;
23838;SDS011;12100;44.384;20.272;2022-12-20T15:56:51;23.73;;;14.40;;
23838;SDS011;12100;44.384;20.272;2022-12-20T15:59:18;29.27;;;16.73;;
23838;SDS011;12100;44.384;20.272;2022-12-20T16:01:44;30.02;;;16.80;;
23838;SDS011;12100;44.384;20.272;2022-12-20T16:04:13;28.98;;;18.45;;
23838;SDS011;12100;44.384;20.272;2022-12-20T16:06:45;46.15;;;23.38;;
23838;SDS011;12100;44.384;20.272;2022-12-20T16:09:12;36.75;;;18.67;;
23838;SDS011;12100;44.384;20.272;2022-12-20T16:11:38;39.03;;;19.60;;
23838;SDS011;12100;44.384;20.272;2022-12-20T16:14:05;34.85;;;20.45;;
23838;SDS011;12100;44.384;20.272;2022-12-20T16:16:32;33.55;;;17.60;;
23838;SDS011;12100;44.384;20.272;2022-12-20T16:19:00;36.28;;;20.42;;
23838;SDS011;12100;44.384;20.272;2022-12-20T16:21:31;28.85;;;15.52;;
23838;SDS011;12100;44.384;20.272;2022-12-20T16:24:00;30.90;;;18.52;;
23838;SDS011;12100;44.384;20.272;2022-12-20T16:26:27;27.02;;;16.85;;
23838;SDS011;12100;44.384;20.272;2022-12-20T16:28:53;27.02;;;16.58;;
23838;SDS011;12100;44.384;20.272;2022-12-20T16:31:29;36.55;;;21.10;;
23838;SDS011;12100;44.384;20.272;2022-12-20T16:34:00;27.05;;;14.88;;
23838;SDS011;12100;44.384;20.272;2022-12-20T16:36:28;29.27;;;18.38;;
23838;SDS011;12100;44.384;20.272;2022-12-20T16:38:54;25.92;;;15.68;;
23838;SDS011;12100;44.384;20.272;2022-12-20T16:41:24;27.48;;;16.88;;
23838;SDS011;12100;44.384;20.272;2022-12-20T16:43:52;46.08;;;31.42;;
23838;SDS011;12100;44.384;20.272;2022-12-20T16:46:19;26.83;;;18.38;;
23838;SDS011;12100;44.384;20.272;2022-12-20T16:48:46;23.40;;;15.85;;
23838;SDS011;12100;44.384;20.272;2022-12-20T16:51:29;22.65;;;15.38;;